Time;durP1;ratioP1;P1;durP2;ratioP2;P2;SDS_P1;SDS_P2;PMS_P1;PMS_P2;Temp;Humidity;BMP_temperature;BMP_pressure;BME280_temperature;BME280_humidity;BME280_pressure;Samples;Min_cycle;Max_cycle;Signal;HPM_P1;HPM_P2
2023/03/11 00:01:19;;;;;;;3.20;1.37;;;13.40;88.80;;;;;;10447238;28;20044;-24
2023/03/11 00:06:20;;;;;;;5.03;1.13;;;14.60;67.70;;;;;;10446405;28;20064;-24
2023/03/11 00:11:22;;;;;;;2.27;1.10;;;14.60;70.80;;;;;;10444416;28;20131;-24
2023/03/11 00:16:26;;;;;;;4.70;1.57;;;15.40;69.10;;;;;;10441188;28;20743;-24
2023/03/11 00:21:28;;;;;;;3.10;1.35;;;15.10;71.30;;;;;;10446809;28;20120;-24
2023/03/11 00:26:29;;;;;;;6.47;1.27;;;15.60;67.30;;;;;;10429942;28;20061;-25
2023/03/11 00:31:33;;;;;;;2.97;1.10;;;12.90;72.70;;;;;;10444436;28;20048;-25
2023/03/11 00:36:35;;;;;;;4.30;0.90;;;13.10;70.90;;;;;;10453681;28;20146;-24
2023/03/11 00:41:37;;;;;;;7.33;1.47;;;14.30;73.20;;;;;;10449696;28;20056;-25
2023/03/11 00:46:40;;;;;;;3.53;1.35;;;15.00;71.40;;;;;;10440313;28;20542;-25
2023/03/11 00:51:43;;;;;;;6.60;1.17;;;13.40;86.30;;;;;;10450289;28;20040;-25
2023/03/11 00:56:45;;;;;;;7.05;1.85;;;11.10;76.50;;;;;;10453123;28;20049;-24
2023/03/11 01:01:48;;;;;;;3.53;0.90;;;14.00;79.60;;;;;;10453313;28;20072;-24
2023/03/11 01:06:50;;;;;;;3.40;0.90;;;13.10;88.70;;;;;;10454919;28;20142;-25
2023/03/11 01:11:53;;;;;;;4.50;1.03;;;13.70;79.50;;;;;;10447193;28;20044;-24
2023/03/11 01:16:56;;;;;;;7.18;1.35;;;10.80;90.50;;;;;;10438219;28;20135;-24
2023/03/11 01:21:58;;;;;;;6.32;1.63;;;11.40;69.30;;;;;;10457084;28;20041;-25
2023/03/11 01:27:00;;;;;;;10.40;0.87;;;12.60;70.40;;;;;;10456213;28;20160;-26
2023/03/11 01:32:03;;;;;;;7.88;1.98;;;11.80;85.80;;;;;;10446029;28;20037;-25
2023/03/11 01:37:05;;;;;;;4.55;0.80;;;13.80;79.70;;;;;;10421965;28;20052;-27
2023/03/11 01:42:07;;;;;;;5.73;1.80;;;13.20;58.30;;;;;;10437967;28;20445;-22
2023/03/11 01:47:37;;;;;;;4.40;1.87;;;13.30;63.20;;;;;;10443077;28;20116;-25
2023/03/11 01:52:40;;;;;;;2.38;0.88;;;12.10;93.50;;;;;;10429129;28;20103;-23
2023/03/11 01:57:44;;;;;;;2.85;0.80;;;13.60;71.10;;;;;;10457305;28;20045;-23
2023/03/11 02:02:51;;;;;;;4.88;1.45;;;13.40;79.10;;;;;;10448853;28;20090;-23
2023/03/11 02:07:55;;;;;;;3.05;1.20;;;11.70;60.30;;;;;;10455708;28;20144;-25
2023/03/11 02:12:57;;;;;;;4.68;1.52;;;14.00;69.10;;;;;;10438632;28;20517;-24
2023/03/11 02:18:02;;;;;;;1.37;0.60;;;13.40;73.00;;;;;;10448233;28;20091;-25
2023/03/11 02:23:04;;;;;;;2.25;0.63;;;14.70;65.90;;;;;;10445457;28;20532;-25
2023/03/11 02:28:11;;;;;;;4.43;0.73;;;13.30;76.90;;;;;;10443079;28;20460;-24
2023/03/11 02:33:15;;;;;;;2.33;1.33;;;14.10;67.80;;;;;;10443890;28;20077;-23
2023/03/11 02:38:17;;;;;;;4.07;0.80;;;15.10;65.60;;;;;;10440269;28;20045;-24
2023/03/11 02:43:25;;;;;;;2.10;0.70;;;14.30;50.20;;;;;;10447583;28;20045;-24
2023/03/11 02:48:28;;;;;;;1.75;0.77;;;14.10;70.90;;;;;;10449480;28;20655;-24
2023/03/11 02:53:36;;;;;;;2.75;1.33;;;13.40;55.10;;;;;;10442040;28;20132;-24
2023/03/11 02:58:39;;;;;;;3.67;1.00;;;14.20;65.20;;;;;;10450236;28;20596;-22
2023/03/11 03:03:41;;;;;;;3.17;0.75;;;14.40;68.60;;;;;;10439176;28;20144;-24
2023/03/11 03:08:43;;;;;;;2.57;0.80;;;14.70;63.50;;;;;;10449866;28;20071;-24
2023/03/11 03:13:46;;;;;;;1.67;0.70;;;15.20;63.70;;;;;;10448731;28;20106;-24
2023/03/11 03:18:48;;;;;;;2.47;0.68;;;15.20;64.00;;;;;;10447924;28;20041;-25
2023/03/11 03:23:50;;;;;;;1.43;0.63;;;15.40;61.90;;;;;;10447053;28;20072;-25
2023/03/11 03:28:53;;;;;;;0.67;0.43;;;15.40;61.00;;;;;;10433619;28;20166;-24
2023/03/11 03:33:55;;;;;;;4.43;0.70;;;15.50;61.30;;;;;;10432986;28;20068;-24
2023/03/11 03:38:58;;;;;;;1.83;1.53;;;15.50;61.50;;;;;;10449713;28;20419;-25
2023/03/11 03:44:01;;;;;;;1.80;0.75;;;15.50;60.90;;;;;;10454562;28;20048;-24
2023/03/11 03:49:03;;;;;;;2.42;0.30;;;15.50;60.70;;;;;;10444930;28;20047;-24
2023/03/11 03:54:05;;;;;;;2.27;0.50;;;15.60;60.50;;;;;;10455029;28;20080;-24
2023/03/11 03:59:09;;;;;;;0.63;0.38;;;15.40;60.90;;;;;;10453378;28;20037;-24
2023/03/11 04:04:11;;;;;;;1.23;0.40;;;15.50;60.60;;;;;;10456424;28;20133;-25
2023/03/11 04:09:13;;;;;;;3.03;0.60;;;15.50;60.40;;;;;;10458759;28;20123;-26
2023/03/11 04:14:16;;;;;;;0.50;0.28;;;15.40;60.40;;;;;;10457633;28;20095;-24
2023/03/11 04:19:18;;;;;;;0.73;0.40;;;15.40;60.80;;;;;;10458784;28;20048;-25
2023/03/11 04:24:20;;;;;;;4.20;0.80;;;15.30;61.20;;;;;;10469199;28;20071;-25
2023/03/11 04:29:23;;;;;;;0.23;0.20;;;15.50;60.10;;;;;;10455231;28;20037;-25
2023/03/11 04:34:25;;;;;;;0.68;0.38;;;15.50;60.30;;;;;;10461779;28;21552;-24
2023/03/11 04:39:27;;;;;;;1.93;0.43;;;15.60;59.90;;;;;;10478188;28;20045;-25
2023/03/11 04:44:30;;;;;;;1.47;0.40;;;15.50;59.70;;;;;;10456954;28;20047;-24
2023/03/11 04:49:32;;;;;;;1.90;0.50;;;15.50;59.70;;;;;;10459585;28;20083;-26
2023/03/11 04:54:34;;;;;;;2.30;0.47;;;15.50;59.50;;;;;;10450765;28;20124;-25
2023/03/11 04:59:37;;;;;;;0.52;0.40;;;15.50;59.10;;;;;;10461822;28;20126;-23
2023/03/11 05:04:39;;;;;;;1.85;0.40;;;15.60;58.90;;;;;;10456818;28;20102;-25
2023/03/11 05:09:41;;;;;;;0.60;0.40;;;15.90;58.30;;;;;;10463964;28;20045;-24
2023/03/11 05:14:44;;;;;;;1.35;0.30;;;16.10;57.70;;;;;;10441818;28;20095;-25
2023/03/11 05:19:47;;;;;;;0.55;0.30;;;16.30;57.40;;;;;;10443390;28;20056;-24
2023/03/11 05:24:49;;;;;;;0.25;0.25;;;16.40;57.10;;;;;;10441752;28;20033;-24
2023/03/11 05:29:52;;;;;;;0.73;0.40;;;16.50;57.00;;;;;;10447441;28;20120;-24
2023/03/11 05:34:54;;;;;;;0.43;0.28;;;16.60;56.80;;;;;;10451128;28;20041;-25
2023/03/11 05:39:56;;;;;;;0.55;0.20;;;16.60;56.80;;;;;;10440134;28;20107;-25
2023/03/11 05:44:59;;;;;;;1.00;0.40;;;16.70;56.80;;;;;;10448898;28;20073;-24
2023/03/11 05:50:01;;;;;;;0.50;0.30;;;16.70;56.60;;;;;;10449245;28;20104;-25
2023/03/11 05:55:03;;;;;;;0.88;0.32;;;16.80;56.70;;;;;;10448091;28;20067;-24
2023/03/11 06:00:10;;;;;;;1.10;0.45;;;16.70;56.60;;;;;;10439328;28;20385;-24
2023/03/11 06:05:12;;;;;;;1.20;0.50;;;16.80;56.60;;;;;;10457289;28;20448;-25
2023/03/11 06:10:14;;;;;;;0.55;0.28;;;16.80;56.60;;;;;;10452814;28;20053;-24
2023/03/11 06:15:17;;;;;;;1.23;0.20;;;16.80;56.70;;;;;;10449634;28;20559;-26
2023/03/11 06:20:19;;;;;;;1.77;0.40;;;16.80;56.60;;;;;;10461664;28;20560;-25
2023/03/11 06:25:21;;;;;;;0.67;0.23;;;16.80;56.70;;;;;;10441935;28;20405;-25
2023/03/11 06:30:25;;;;;;;1.15;0.47;;;16.80;56.60;;;;;;10442206;28;20450;-25
2023/03/11 06:35:27;;;;;;;1.17;0.30;;;16.80;56.40;;;;;;10453226;28;20615;-25
2023/03/11 06:40:29;;;;;;;0.10;0.10;;;16.90;56.30;;;;;;10447050;28;20083;-24
2023/03/11 06:45:32;;;;;;;1.02;0.60;;;16.90;56.30;;;;;;10434912;28;20088;-26
2023/03/11 06:50:34;;;;;;;0.30;0.20;;;16.90;56.90;;;;;;10439388;28;20155;-23
2023/03/11 06:55:36;;;;;;;1.88;0.50;;;16.90;56.20;;;;;;10443620;28;20067;-25
2023/03/11 07:00:39;;;;;;;0.88;0.30;;;16.90;56.10;;;;;;10441168;28;20414;-23
2023/03/11 07:14:56;;;;;;;0.30;0.25;;;16.80;55.90;;;;;;10507957;27;20571;-25
2023/03/11 07:19:58;;;;;;;0.40;0.30;;;16.80;56.50;;;;;;10518063;28;20067;-26
2023/03/11 07:25:00;;;;;;;1.13;0.28;;;16.80;56.40;;;;;;10510474;28;20064;-26
2023/03/11 07:30:04;;;;;;;3.75;0.90;;;16.80;56.30;;;;;;10515184;28;20044;-24
2023/03/11 07:35:07;;;;;;;4.82;0.55;;;16.80;56.30;;;;;;10514243;28;20053;-23
2023/03/11 07:40:10;;;;;;;3.17;0.60;;;16.90;56.20;;;;;;10515784;28;20450;-25
2023/03/11 07:45:13;;;;;;;3.35;1.20;;;16.30;57.60;;;;;;10519583;28;20079;-26
2023/03/11 07:50:16;;;;;;;3.35;1.70;;;15.80;59.30;;;;;;10517133;28;20044;-25
2023/03/11 07:55:18;;;;;;;6.93;2.20;;;15.50;60.40;;;;;;10515419;28;20133;-22
2023/03/11 08:00:22;;;;;;;7.85;2.67;;;15.50;60.70;;;;;;10514957;28;20125;-26
2023/03/11 08:05:24;;;;;;;7.55;3.15;;;15.20;62.80;;;;;;10517692;28;20064;-24
2023/03/11 08:10:26;;;;;;;11.37;4.03;;;15.00;63.60;;;;;;10501632;28;20044;-25
2023/03/11 08:15:29;;;;;;;9.10;1.77;;;13.80;68.30;;;;;;10511178;28;20047;-24
2023/03/11 08:20:31;;;;;;;9.90;2.67;;;12.00;52.00;;;;;;10504617;28;20052;-24
2023/03/11 08:25:33;;;;;;;11.27;4.27;;;11.40;66.40;;;;;;10475315;28;20084;-24
2023/03/11 08:30:36;;;;;;;9.82;2.50;;;12.20;89.40;;;;;;10481406;28;20051;-24
2023/03/11 08:35:38;;;;;;;6.93;2.13;;;14.90;66.10;;;;;;10482912;28;20492;-24
2023/03/11 08:40:40;;;;;;;10.83;2.07;;;15.50;62.30;;;;;;10478377;28;20068;-24
2023/03/11 08:45:43;;;;;;;7.63;1.93;;;15.50;61.90;;;;;;10488235;28;20126;-24
2023/03/11 08:50:45;;;;;;;22.58;3.00;;;15.00;60.80;;;;;;10469645;28;20082;-24
2023/03/11 08:55:47;;;;;;;20.17;2.90;;;15.60;63.60;;;;;;10475345;28;20085;-26
2023/03/11 09:00:51;;;;;;;22.00;4.70;;;15.70;63.50;;;;;;10465447;28;20391;-25
2023/03/11 09:05:57;;;;;;;26.77;2.75;;;15.30;66.30;;;;;;10467258;28;20048;-26
2023/03/11 09:11:00;;;;;;;14.48;1.67;;;15.80;64.20;;;;;;10470499;28;20196;-24
2023/03/11 09:16:04;;;;;;;10.57;1.58;;;15.90;63.10;;;;;;10470692;28;20086;-24
2023/03/11 09:21:06;;;;;;;13.82;2.40;;;17.00;58.90;;;;;;10480395;28;20520;-24
2023/03/11 09:26:08;;;;;;;9.25;1.17;;;17.20;58.00;;;;;;10480287;28;20788;-26
2023/03/11 09:31:11;;;;;;;8.52;1.40;;;17.20;57.60;;;;;;10480141;28;20484;-25
2023/03/11 09:36:15;;;;;;;3.08;0.70;;;17.10;57.70;;;;;;10463375;28;20045;-24
2023/03/11 09:41:28;;;;;;;36.60;3.25;;;17.10;57.70;;;;;;10474569;28;20133;-23
2023/03/11 09:46:48;;;;;;;;;;;16.40;60.30;;;;;;10481253;28;20068;-24
2023/03/11 09:51:57;;;;;;;6.07;2.17;;;16.80;58.70;;;;;;10482708;28;20399;-24
2023/03/11 09:57:01;;;;;;;12.20;1.30;;;17.20;57.50;;;;;;10493965;28;20468;-25
2023/03/11 10:02:05;;;;;;;11.27;1.02;;;17.30;57.70;;;;;;10480097;28;20209;-25
2023/03/11 10:07:17;;;;;;;9.57;0.90;;;17.60;56.50;;;;;;10470818;28;20441;-25
2023/03/11 10:12:34;;;;;;;11.27;1.25;;;17.60;56.50;;;;;;10479678;28;20052;-26
2023/03/11 10:17:57;;;;;;;7.25;2.05;;;17.30;57.10;;;;;;10490373;28;20461;-25
2023/03/11 10:23:12;;;;;;;5.05;0.47;;;17.50;56.90;;;;;;10478170;28;20041;-26
2023/03/11 10:28:16;;;;;;;4.15;0.80;;;17.60;56.70;;;;;;10469725;28;20136;-26
2023/03/11 10:33:24;;;;;;;1.92;0.50;;;17.50;56.80;;;;;;10482727;28;20155;-24
2023/03/11 10:38:31;;;;;;;2.80;0.70;;;17.60;56.20;;;;;;10473459;28;20045;-24
2023/03/11 10:43:38;;;;;;;2.50;0.45;;;17.70;56.00;;;;;;10475400;28;20094;-24
2023/03/11 10:48:40;;;;;;;3.38;0.55;;;17.70;55.70;;;;;;10470085;28;20041;-27
2023/03/11 10:53:47;;;;;;;5.30;0.70;;;17.90;55.00;;;;;;10481210;28;20063;-24
2023/03/11 10:58:50;;;;;;;2.15;0.65;;;17.80;55.20;;;;;;10483401;28;20071;-24
2023/03/11 11:03:54;;;;;;;1.92;0.70;;;17.80;55.00;;;;;;10476970;28;20127;-25
2023/03/11 11:09:15;;;;;;;6.32;0.55;;;16.90;56.20;;;;;;10477871;28;20041;-26
2023/03/11 11:14:17;;;;;;;4.13;0.70;;;17.50;54.70;;;;;;10478723;28;20049;-25
2023/03/11 11:19:19;;;;;;;2.05;0.60;;;17.80;55.10;;;;;;10477097;28;20037;-25
2023/03/11 11:24:25;;;;;;;2.92;0.77;;;17.90;54.90;;;;;;10479423;28;20131;-26
2023/03/11 11:29:27;;;;;;;1.77;0.60;;;17.90;54.40;;;;;;10480942;28;20056;-23
2023/03/11 11:34:32;;;;;;;4.68;1.10;;;17.80;54.80;;;;;;10480823;28;20465;-25
2023/03/11 11:39:44;;;;;;;4.88;0.88;;;16.60;40.30;;;;;;10483869;28;20094;-24
2023/03/11 11:44:49;;;;;;;6.90;0.88;;;17.80;54.40;;;;;;10476059;28;20049;-26
2023/03/11 11:49:55;;;;;;;3.28;0.50;;;18.20;53.20;;;;;;10475938;28;20135;-27
2023/03/11 11:55:04;;;;;;;3.67;0.68;;;18.10;53.30;;;;;;10478009;28;20171;-26
2023/03/11 12:00:19;;;;;;;3.35;0.55;;;17.30;55.00;;;;;;10484831;28;20056;-26
2023/03/11 12:05:28;;;;;;;6.35;1.20;;;17.10;55.90;;;;;;10482284;28;20450;-25
2023/03/11 12:10:36;;;;;;;2.45;0.85;;;17.10;54.70;;;;;;10488093;28;20083;-24
2023/03/11 12:15:41;;;;;;;3.03;0.75;;;18.30;52.50;;;;;;10481432;28;20039;-26
2023/03/11 12:20:46;;;;;;;2.78;0.82;;;18.40;52.30;;;;;;10481419;28;20076;-25
2023/03/11 12:26:02;;;;;;;1.23;0.60;;;18.00;53.00;;;;;;10485319;28;20036;-26
2023/03/11 12:31:09;;;;;;;3.58;0.85;;;16.90;56.00;;;;;;10489427;28;20461;-25
2023/03/11 12:36:28;;;;;;;9.30;1.20;;;16.80;57.60;;;;;;10481758;28;20048;-24
2023/03/11 12:41:37;;;;;;;16.58;2.72;;;17.40;56.60;;;;;;10489827;28;20390;-26
2023/03/11 12:47:02;;;;;;;10.30;2.30;;;16.70;47.80;;;;;;10483482;28;20044;-27
2023/03/11 12:52:25;;;;;;;11.27;2.90;;;14.30;48.60;;;;;;10478685;28;20040;-25
2023/03/11 12:57:34;;;;;;;;;;;14.50;68.10;;;;;;10489791;28;20385;-25
2023/03/11 13:03:07;;;;;;;38.15;12.50;;;14.60;73.60;;;;;;10492996;28;20369;-24
2023/03/11 13:08:13;;;;;;;48.88;18.30;;;16.00;65.20;;;;;;10482441;28;20455;-24
2023/03/11 13:13:37;;;;;;;21.67;10.63;;;16.40;66.00;;;;;;10480709;28;20135;-27
2023/03/11 13:18:40;;;;;;;20.98;8.75;;;15.40;66.60;;;;;;10484667;28;20071;-28
2023/03/11 13:23:42;;;;;;;33.00;14.05;;;15.90;59.80;;;;;;10506130;28;20068;-24
2023/03/11 13:29:04;;;;;;;28.08;13.20;;;16.10;68.70;;;;;;10482971;28;20485;-25
2023/03/11 13:34:14;;;;;;;27.43;12.90;;;16.50;56.60;;;;;;10467564;28;20143;-25
2023/03/11 13:39:37;;;;;;;17.23;6.53;;;16.40;60.30;;;;;;10476269;28;20115;-26
2023/03/11 13:44:41;;;;;;;17.80;8.25;;;14.40;78.20;;;;;;10475911;28;20470;-24
2023/03/11 13:49:50;;;;;;;16.98;10.07;;;14.60;73.60;;;;;;10472498;28;20049;-28
2023/03/11 13:54:59;;;;;;;6.40;2.15;;;14.60;80.00;;;;;;10483122;28;20044;-25
2023/03/11 14:00:16;;;;;;;19.90;9.20;;;14.20;65.70;;;;;;10491763;28;20076;-24
2023/03/11 14:05:22;;;;;;;13.75;7.57;;;16.00;71.30;;;;;;10483582;28;20053;-25
2023/03/11 14:10:27;;;;;;;23.23;9.52;;;16.40;66.80;;;;;;10491015;28;20112;-25
2023/03/11 14:15:37;;;;;;;18.65;9.55;;;14.00;80.10;;;;;;10470358;28;20063;-29
2023/03/11 14:20:39;;;;;;;21.88;8.57;;;15.40;75.90;;;;;;10478691;28;20097;-26
2023/03/11 14:25:41;;;;;;;17.90;7.53;;;15.60;73.10;;;;;;10478460;28;20067;-24
2023/03/11 14:30:55;;;;;;;7.87;3.37;;;15.70;74.40;;;;;;10483889;28;20090;-27
2023/03/11 14:35:59;;;;;;;8.27;4.63;;;14.70;59.40;;;;;;10473301;28;20052;-25
2023/03/11 14:41:04;;;;;;;14.55;6.63;;;16.20;66.10;;;;;;10474020;28;20041;-25
2023/03/11 14:46:11;;;;;;;7.43;4.50;;;16.60;69.80;;;;;;10477935;28;20048;-26
2023/03/11 14:51:18;;;;;;;5.47;1.08;;;17.10;61.30;;;;;;10485981;28;20044;-25
2023/03/11 14:56:22;;;;;;;14.98;4.28;;;16.10;47.70;;;;;;10481075;28;20045;-24
2023/03/11 15:01:28;;;;;;;6.85;2.00;;;16.00;66.70;;;;;;10471797;28;20071;-24
2023/03/11 15:06:32;;;;;;;20.45;3.90;;;16.70;64.10;;;;;;10491591;28;20080;-24
2023/03/11 15:11:45;;;;;;;16.75;4.30;;;18.00;63.80;;;;;;10484723;28;20045;-24
2023/03/11 15:16:49;;;;;;;19.98;4.00;;;17.20;67.50;;;;;;10477994;28;20081;-22
2023/03/11 15:21:53;;;;;;;16.13;2.90;;;16.70;69.10;;;;;;10493448;28;20076;-25
2023/03/11 15:26:57;;;;;;;12.35;3.03;;;17.40;49.70;;;;;;10470116;28;20040;-25
2023/03/11 15:32:21;;;;;;;6.10;1.88;;;18.60;60.60;;;;;;10485446;28;20082;-26
2023/03/11 15:37:25;;;;;;;24.85;4.03;;;16.50;53.10;;;;;;10498180;28;20123;-26
2023/03/11 15:42:27;;;;;;;20.08;4.32;;;18.00;66.50;;;;;;10497497;28;20105;-25
2023/03/11 15:47:30;;;;;;;17.00;2.75;;;18.70;62.00;;;;;;10487970;28;20131;-26
2023/03/11 15:52:32;;;;;;;19.90;4.10;;;18.10;60.60;;;;;;10494366;28;20467;-26
2023/03/11 15:57:34;;;;;;;20.42;3.63;;;18.30;66.50;;;;;;10492997;28;20135;-25
2023/03/11 16:02:37;;;;;;;16.23;1.83;;;19.20;59.20;;;;;;10484985;28;20136;-24
2023/03/11 16:07:40;;;;;;;12.05;3.20;;;17.80;52.60;;;;;;10494293;28;20098;-24
2023/03/11 16:12:42;;;;;;;20.02;4.65;;;19.40;58.80;;;;;;10491276;28;20087;-26
2023/03/11 16:17:45;;;;;;;13.57;2.38;;;18.10;54.10;;;;;;10483089;28;20048;-25
2023/03/11 16:22:48;;;;;;;13.82;2.63;;;19.40;58.70;;;;;;10504531;28;20049;-25
2023/03/11 16:27:52;;;;;;;5.65;1.65;;;19.50;57.10;;;;;;10492581;28;20128;-25
2023/03/11 16:32:56;;;;;;;5.18;1.00;;;19.90;55.00;;;;;;10479404;28;20114;-24
2023/03/11 16:37:58;;;;;;;7.38;1.77;;;19.30;55.80;;;;;;10492715;28;20055;-25
2023/03/11 16:43:02;;;;;;;4.70;1.02;;;19.90;52.30;;;;;;10485997;28;20083;-25
2023/03/11 16:48:06;;;;;;;7.55;1.98;;;20.70;54.10;;;;;;10474613;28;20052;-25
2023/03/11 16:53:07;;;;;;;9.05;1.60;;;20.80;53.90;;;;;;10487123;28;20054;-26
2023/03/11 16:58:09;;;;;;;22.40;4.50;;;20.90;53.50;;;;;;10477493;28;20130;-25
2023/03/11 17:03:14;;;;;;;11.27;2.50;;;20.90;53.90;;;;;;10480045;28;20130;-28
2023/03/11 17:08:17;;;;;;;8.82;1.83;;;21.00;52.80;;;;;;10483343;28;20059;-26
2023/03/11 17:13:19;;;;;;;3.92;1.52;;;21.00;52.40;;;;;;10480740;28;20150;-26
2023/03/11 17:18:22;;;;;;;8.82;1.40;;;21.00;52.40;;;;;;10485475;28;20457;-26
2023/03/11 17:23:24;;;;;;;4.60;2.08;;;21.00;52.40;;;;;;10486415;28;20066;-29
2023/03/11 17:28:25;;;;;;;7.25;1.77;;;21.00;52.70;;;;;;10492420;28;20052;-27
2023/03/11 17:33:29;;;;;;;10.23;1.90;;;20.90;52.90;;;;;;10485091;28;20048;-27
2023/03/11 17:38:31;;;;;;;6.35;1.80;;;20.90;53.10;;;;;;10484441;28;20102;-27
2023/03/11 17:43:33;;;;;;;10.80;2.58;;;20.80;53.20;;;;;;10470704;28;20080;-25
2023/03/11 17:48:36;;;;;;;7.60;2.55;;;20.90;53.20;;;;;;10482624;28;20037;-26
2023/03/11 17:53:39;;;;;;;9.43;3.13;;;20.80;53.30;;;;;;10478497;28;20659;-25
2023/03/11 17:58:40;;;;;;;8.55;1.95;;;20.70;54.00;;;;;;10478432;28;20045;-24
2023/03/11 18:03:44;;;;;;;11.45;2.45;;;20.70;54.10;;;;;;10478343;28;20048;-25
2023/03/11 18:08:46;;;;;;;8.35;1.75;;;20.60;54.70;;;;;;10481741;28;20048;-23
2023/03/11 18:13:48;;;;;;;;;;;20.50;54.40;;;;;;10486323;28;20082;-25
2023/03/11 18:18:53;;;;;;;11.70;2.00;;;20.50;54.60;;;;;;10481108;28;20027;-25
2023/03/11 18:23:56;;;;;;;5.13;1.60;;;20.50;54.70;;;;;;10473051;28;20143;-25
2023/03/11 18:28:59;;;;;;;4.63;1.30;;;20.50;54.80;;;;;;10482080;28;20068;-25
2023/03/11 18:34:06;;;;;;;4.43;1.60;;;20.50;54.70;;;;;;10473188;28;20084;-25
2023/03/11 18:39:10;;;;;;;6.15;1.75;;;20.50;54.60;;;;;;10478123;28;20051;-27
2023/03/11 18:44:12;;;;;;;4.57;1.33;;;20.50;54.50;;;;;;10469579;28;20433;-24
2023/03/11 18:49:16;;;;;;;;;;;20.60;54.40;;;;;;10475576;28;20044;-25
2023/03/11 18:54:17;;;;;;;4.50;1.85;;;20.50;54.20;;;;;;10476866;28;19916;-25
2023/03/11 18:59:19;;;;;;;2.60;1.30;;;20.50;54.30;;;;;;10480408;28;20044;-24
2023/03/11 19:04:23;;;;;;;3.80;1.40;;;20.50;54.50;;;;;;10482103;28;20075;-25
2023/03/11 19:09:24;;;;;;;2.63;0.77;;;20.40;54.60;;;;;;10489083;28;20232;-26
2023/03/11 19:14:26;;;;;;;6.13;1.38;;;20.40;54.70;;;;;;10477456;28;20153;-25
2023/03/11 19:19:30;;;;;;;2.92;1.30;;;20.40;54.90;;;;;;10476121;28;20102;-26
2023/03/11 19:24:32;;;;;;;5.68;1.60;;;20.30;55.10;;;;;;10484067;28;20113;-25
2023/03/11 19:29:34;;;;;;;3.40;1.50;;;20.30;55.10;;;;;;10500079;28;20123;-24
2023/03/11 19:34:38;;;;;;;2.90;1.30;;;20.30;55.50;;;;;;10478387;28;20115;-26
2023/03/11 19:39:40;;;;;;;4.53;1.75;;;20.30;55.10;;;;;;10479396;28;20063;-25
2023/03/11 19:44:42;;;;;;;2.22;1.33;;;20.30;55.00;;;;;;10503659;28;20036;-25
2023/03/11 19:49:45;;;;;;;3.63;1.35;;;20.30;55.00;;;;;;10481909;28;20109;-25
2023/03/11 19:54:47;;;;;;;3.92;1.30;;;20.20;55.30;;;;;;10474582;28;20053;-25
2023/03/11 19:59:49;;;;;;;2.28;1.20;;;20.20;55.50;;;;;;10473299;28;20385;-26
2023/03/11 20:04:52;;;;;;;8.55;1.90;;;20.10;55.40;;;;;;10465033;28;20048;-25
2023/03/11 20:09:54;;;;;;;3.42;1.52;;;20.10;55.20;;;;;;10479906;28;20072;-24
2023/03/11 20:14:56;;;;;;;4.53;1.67;;;20.10;55.20;;;;;;10476487;28;20148;-25
2023/03/11 20:19:59;;;;;;;5.45;1.85;;;20.00;55.00;;;;;;10484888;28;20040;-24
2023/03/11 20:25:01;;;;;;;6.35;1.85;;;20.00;54.70;;;;;;10474459;28;20474;-25
2023/03/11 20:30:04;;;;;;;9.30;2.70;;;20.00;54.60;;;;;;10479621;28;20501;-27
2023/03/11 20:35:08;;;;;;;4.00;1.90;;;20.00;54.50;;;;;;10477400;28;20049;-24
2023/03/11 20:40:12;;;;;;;4.28;2.10;;;20.00;54.30;;;;;;10480782;28;20048;-25
2023/03/11 20:45:16;;;;;;;5.72;2.17;;;19.90;54.10;;;;;;10483605;28;20475;-25
2023/03/11 20:50:20;;;;;;;3.85;1.92;;;19.90;54.10;;;;;;10484737;28;20098;-27
2023/03/11 20:55:22;;;;;;;9.18;2.22;;;19.90;54.00;;;;;;10485353;28;20052;-27
2023/03/11 21:00:24;;;;;;;;;;;19.90;53.90;;;;;;10493240;28;20048;-25
2023/03/11 21:05:27;;;;;;;5.57;2.20;;;19.90;53.80;;;;;;10486579;28;20334;-25
2023/03/11 21:10:29;;;;;;;4.05;2.17;;;19.80;53.80;;;;;;10488638;28;20527;-24
2023/03/11 21:15:31;;;;;;;5.07;2.40;;;19.80;53.60;;;;;;10486200;28;20048;-24
2023/03/11 21:20:36;;;;;;;3.65;2.40;;;19.80;53.40;;;;;;10489422;28;20105;-25
2023/03/11 21:25:41;;;;;;;8.05;2.25;;;19.80;53.30;;;;;;10488050;28;20080;-24
2023/03/11 21:30:43;;;;;;;5.80;2.15;;;19.80;53.00;;;;;;10481913;28;20040;-23
2023/03/11 21:35:52;;;;;;;5.15;2.88;;;19.80;53.10;;;;;;10494161;28;20126;-22
2023/03/11 21:41:03;;;;;;;4.68;2.25;;;19.80;53.10;;;;;;10496834;28;20131;-24
2023/03/11 21:46:05;;;;;;;7.43;1.92;;;19.80;53.20;;;;;;10491635;28;20119;-24
2023/03/11 21:51:08;;;;;;;3.05;1.85;;;19.70;53.50;;;;;;10476763;28;20044;-24
2023/03/11 21:56:12;;;;;;;5.22;2.13;;;19.70;53.60;;;;;;10477025;28;20076;-27
2023/03/11 22:01:13;;;;;;;3.05;1.98;;;19.60;53.50;;;;;;10481617;28;20041;-24
2023/03/11 22:06:17;;;;;;;2.95;2.08;;;19.60;53.40;;;;;;10478558;28;20170;-24
2023/03/11 22:11:19;;;;;;;3.35;1.95;;;19.50;53.50;;;;;;10469388;28;20083;-28
2023/03/11 22:16:22;;;;;;;4.47;2.63;;;19.00;55.00;;;;;;10479138;28;20103;-25
2023/03/11 22:21:26;;;;;;;5.20;3.35;;;18.80;55.70;;;;;;10471305;28;20120;-25
2023/03/11 22:26:27;;;;;;;5.45;2.88;;;18.50;56.40;;;;;;10483920;28;20056;-24
2023/03/11 22:31:29;;;;;;;4.80;3.22;;;18.40;56.90;;;;;;10480822;28;20124;-25
2023/03/11 22:36:33;;;;;;;7.03;3.35;;;18.20;57.40;;;;;;10487746;28;20044;-25
2023/03/11 22:41:35;;;;;;;3.10;2.00;;;18.50;56.00;;;;;;10476623;28;20404;-25
2023/03/11 22:46:36;;;;;;;3.25;2.30;;;18.90;54.80;;;;;;10463229;28;20123;-25
2023/03/11 22:51:40;;;;;;;3.10;1.90;;;19.00;54.50;;;;;;10482449;28;20047;-23
2023/03/11 22:56:42;;;;;;;1.90;1.52;;;18.90;54.50;;;;;;10478792;28;20076;-25
2023/03/11 23:01:43;;;;;;;5.70;1.92;;;19.00;54.40;;;;;;10475772;28;20063;-25
2023/03/11 23:06:47;;;;;;;5.60;1.80;;;18.90;54.50;;;;;;10498529;28;20067;-25
2023/03/11 23:11:50;;;;;;;4.32;1.80;;;18.90;54.50;;;;;;10485890;28;20050;-26
2023/03/11 23:16:52;;;;;;;3.95;2.15;;;18.90;54.30;;;;;;10471786;28;20092;-27
2023/03/11 23:21:55;;;;;;;3.05;1.83;;;18.80;54.30;;;;;;10488539;28;20437;-24
2023/03/11 23:26:57;;;;;;;3.50;1.70;;;18.90;54.30;;;;;;10480170;28;20044;-26
2023/03/11 23:31:59;;;;;;;3.80;1.25;;;18.80;54.40;;;;;;10477252;28;20090;-26
2023/03/11 23:37:02;;;;;;;5.35;1.98;;;18.80;54.40;;;;;;10469258;28;20048;-26
2023/03/11 23:42:04;;;;;;;1.95;1.30;;;18.70;54.30;;;;;;10474102;28;20412;-26
2023/03/11 23:47:06;;;;;;;2.70;1.73;;;18.70;54.60;;;;;;10483852;28;20449;-25
2023/03/11 23:52:09;;;;;;;2.15;1.40;;;18.70;54.40;;;;;;10492578;28;20044;-24
2023/03/11 23:57:11;;;;;;;1.35;1.25;;;18.70;54.80;;;;;;10497476;28;20083;-25
